createdAt,value
2022-08-17T00:02:25.253Z,10.02
2022-08-17T00:07:29.139Z,10.70
2022-08-17T00:12:41.925Z,10.25
2022-08-17T00:17:48.578Z,10.93
2022-08-17T00:22:50.807Z,10.60
2022-08-17T00:27:53.471Z,10.60
2022-08-17T00:33:15.710Z,10.77
2022-08-17T00:38:19.096Z,10.25
2022-08-17T00:43:32.583Z,10.23
2022-08-17T00:48:35.847Z,9.73
2022-08-17T00:53:43.267Z,9.25
2022-08-17T00:58:45.334Z,9.30
2022-08-17T01:03:47.772Z,9.65
2022-08-17T01:08:57.454Z,9.60
2022-08-17T01:13:59.947Z,10.35
2022-08-17T01:19:06.616Z,9.48
2022-08-17T01:24:08.924Z,9.05
2022-08-17T01:29:11.723Z,10.23
2022-08-17T01:34:16.034Z,9.40
2022-08-17T01:39:29.333Z,9.48
2022-08-17T01:44:31.977Z,9.32
2022-08-17T01:49:34.325Z,9.48
2022-08-17T01:54:39.880Z,9.20
2022-08-17T01:59:42.227Z,8.68
2022-08-17T02:04:44.369Z,9.00
2022-08-17T02:09:46.560Z,8.13
2022-08-17T02:14:54.798Z,7.60
2022-08-17T02:19:57.057Z,9.45
2022-08-17T02:25:02.327Z,8.73
2022-08-17T02:31:00.093Z,8.75
2022-08-17T02:35:29.593Z,8.73
2022-08-17T02:40:35.053Z,8.48
2022-08-17T02:45:38.599Z,8.50
2022-08-17T02:50:40.953Z,8.23
2022-08-17T02:55:43.851Z,7.63
2022-08-17T03:00:48.392Z,7.60
2022-08-17T03:05:53.642Z,7.63
2022-08-17T03:10:56.180Z,7.50
2022-08-17T03:15:58.812Z,7.32
2022-08-17T03:21:04.383Z,7.70
2022-08-17T03:26:12.179Z,7.45
2022-08-17T03:31:18.490Z,7.47
2022-08-17T03:36:20.661Z,6.47
2022-08-17T03:41:22.725Z,6.70
2022-08-17T03:46:43.219Z,6.55
2022-08-17T03:52:04.011Z,6.47
2022-08-17T03:57:09.318Z,6.90
2022-08-17T04:02:19.094Z,6.93
2022-08-17T04:07:22.893Z,6.72
2022-08-17T04:12:25.680Z,5.95
2022-08-17T04:17:29.140Z,5.75
2022-08-17T04:22:34.245Z,6.05
2022-08-17T04:27:36.770Z,6.10
2022-08-17T04:33:04.182Z,6.30
2022-08-17T04:38:14.396Z,6.03
2022-08-17T04:43:19.760Z,6.03
2022-08-17T04:48:22.467Z,5.72
2022-08-17T04:53:24.546Z,5.28
2022-08-17T04:58:26.720Z,6.22
2022-08-17T05:03:29.068Z,5.60
2022-08-17T05:08:31.289Z,5.68
2022-08-17T05:13:33.332Z,4.72
2022-08-17T05:18:35.382Z,5.00
2022-08-17T05:23:42.035Z,5.00
2022-08-17T05:28:45.394Z,4.70
2022-08-17T05:33:49.605Z,4.88
2022-08-17T05:38:51.675Z,5.88
2022-08-17T05:43:56.409Z,4.20
2022-08-17T05:49:08.518Z,3.92
2022-08-17T05:54:41.342Z,3.90
2022-08-17T06:00:11.142Z,5.28
2022-08-17T06:05:32.370Z,4.15
2022-08-17T06:10:46.587Z,3.83
2022-08-17T06:16:25.896Z,3.85
2022-08-17T06:21:35.904Z,3.60
2022-08-17T06:26:43.464Z,3.38
2022-08-17T06:31:46.220Z,6.07
2022-08-17T06:37:03.861Z,3.25
2022-08-17T06:43:00.875Z,2.97
2022-08-17T06:48:00.975Z,3.10
2022-08-17T06:53:14.284Z,3.00
2022-08-17T06:58:21.703Z,2.92
2022-08-17T07:03:27.144Z,2.97
2022-08-17T07:08:51.203Z,2.60
2022-08-17T07:14:24.671Z,3.33
2022-08-17T07:19:32.251Z,2.50
2022-08-17T07:24:45.206Z,2.85
2022-08-17T07:29:54.566Z,2.70
2022-08-17T07:35:01.149Z,2.40
2022-08-17T07:40:33.811Z,2.10
2022-08-17T07:45:56.951Z,2.08
2022-08-17T07:51:00.298Z,3.30
2022-08-17T07:56:02.395Z,2.20
2022-08-17T08:01:15.596Z,1.92
2022-08-17T08:06:24.364Z,1.98
2022-08-17T08:11:35.644Z,2.20
2022-08-17T08:16:37.728Z,1.90
2022-08-17T08:22:05.718Z,1.73
2022-08-17T08:27:10.657Z,1.98
2022-08-17T08:32:33.807Z,2.13
2022-08-17T08:38:02.956Z,2.00
2022-08-17T08:43:14.219Z,1.90
2022-08-17T08:48:56.921Z,2.17
2022-08-17T08:54:06.622Z,2.33
2022-08-17T08:59:14.333Z,1.30
2022-08-17T09:04:24.634Z,1.40
2022-08-17T09:09:33.497Z,2.45
2022-08-17T09:14:46.442Z,1.58
2022-08-17T09:19:53.468Z,2.65
2022-08-17T09:25:03.811Z,1.90
2022-08-17T09:30:10.391Z,1.80
2022-08-17T09:35:25.125Z,1.92
2022-08-17T09:40:57.312Z,1.90
2022-08-17T09:46:04.159Z,1.95
2022-08-17T09:51:23.074Z,1.38
2022-08-17T09:57:25.792Z,3.50
2022-08-17T10:03:05.276Z,1.67
2022-08-17T10:08:22.864Z,1.77
2022-08-17T10:18:54.748Z,1.60
2022-08-17T10:25:22.285Z,1.60
2022-08-17T10:30:30.770Z,1.80
2022-08-17T10:35:47.051Z,2.20
2022-08-17T10:41:24.537Z,2.05
2022-08-17T10:46:35.212Z,2.38
2022-08-17T10:51:40.071Z,2.30
2022-08-17T10:56:49.652Z,1.90
2022-08-17T11:01:58.686Z,2.05
2022-08-17T11:07:06.494Z,2.50
2022-08-17T11:17:49.846Z,2.00
2022-08-17T11:23:04.826Z,2.05
2022-08-17T11:28:18.522Z,2.20
2022-08-17T11:33:29.472Z,4.22
2022-08-17T11:38:43.133Z,3.13
2022-08-17T11:44:29.322Z,2.67
2022-08-17T11:50:04.846Z,3.38
2022-08-17T11:55:33.962Z,3.50
2022-08-17T12:01:06.944Z,3.10
2022-08-17T12:06:31.203Z,2.85
2022-08-17T12:12:12.007Z,3.10
2022-08-17T12:17:40.531Z,3.70
2022-08-17T12:23:32.012Z,3.58
2022-08-17T12:28:36.634Z,3.65
2022-08-17T12:33:43.985Z,4.20
2022-08-17T12:38:59.554Z,5.35
2022-08-17T12:44:24.557Z,4.20
2022-08-17T12:49:29.665Z,4.10
2022-08-17T12:54:55.930Z,5.60
2022-08-17T13:00:10.003Z,4.93
2022-08-17T13:05:31.985Z,5.68
2022-08-17T13:10:36.552Z,6.03
2022-08-17T13:15:44.330Z,5.85
2022-08-17T13:20:55.261Z,5.00
2022-08-17T13:26:05.024Z,4.65
2022-08-17T13:31:27.910Z,4.38
2022-08-17T13:36:33.988Z,4.35
2022-08-17T13:41:38.298Z,3.90
2022-08-17T13:46:40.402Z,4.95
2022-08-17T13:51:44.782Z,7.28
2022-08-17T13:56:52.089Z,5.78
2022-08-17T14:01:54.704Z,5.82
2022-08-17T14:06:59.061Z,4.90
2022-08-17T14:12:03.603Z,5.05
2022-08-17T14:17:05.950Z,5.53
2022-08-17T14:22:18.323Z,5.45
2022-08-17T14:27:21.095Z,6.22
2022-08-17T14:32:27.487Z,5.93
2022-08-17T14:37:29.955Z,6.30
2022-08-17T14:42:34.239Z,6.68
2022-08-17T14:47:37.670Z,4.65
2022-08-17T14:52:41.910Z,4.25
2022-08-17T14:57:45.468Z,4.82
2022-08-17T15:02:54.802Z,4.50
2022-08-17T15:07:57.887Z,4.20
2022-08-17T15:13:00.533Z,4.68
2022-08-17T15:18:03.417Z,3.63
2022-08-17T15:23:07.104Z,4.43
2022-08-17T15:28:09.210Z,4.00
2022-08-17T15:33:16.420Z,3.88
2022-08-17T15:38:18.656Z,4.13
2022-08-17T15:43:28.057Z,4.32
2022-08-17T15:48:42.020Z,4.07
2022-08-17T15:53:47.222Z,4.40
2022-08-17T15:58:50.100Z,4.05
2022-08-17T16:04:04.518Z,4.45
2022-08-17T16:09:09.000Z,4.60
2022-08-17T16:14:11.075Z,4.65
2022-08-17T16:19:16.694Z,5.25
2022-08-17T16:24:18.835Z,4.80
2022-08-17T16:29:21.518Z,4.40
2022-08-17T16:34:24.418Z,7.00
2022-08-17T16:39:29.456Z,4.45
2022-08-17T16:44:32.609Z,4.88
2022-08-17T16:49:36.670Z,4.70
2022-08-17T16:54:43.821Z,5.20
2022-08-17T16:59:50.320Z,5.57
2022-08-17T17:05:02.618Z,4.72
2022-08-17T17:10:09.376Z,4.90
2022-08-17T17:15:14.873Z,4.50
2022-08-17T17:20:25.612Z,8.18
2022-08-17T17:25:35.956Z,11.07
2022-08-17T17:30:56.841Z,7.70
2022-08-17T17:36:09.070Z,6.57
2022-08-17T17:41:52.586Z,5.10
2022-08-17T17:46:59.087Z,5.53
2022-08-17T17:52:26.866Z,5.65
2022-08-17T17:57:40.931Z,7.28
2022-08-17T18:03:07.982Z,6.60
2022-08-17T18:08:34.202Z,6.30
2022-08-17T18:14:04.473Z,6.13
2022-08-17T18:19:25.136Z,6.43
2022-08-17T18:24:36.440Z,9.43
2022-08-17T18:29:45.953Z,6.07
2022-08-17T18:35:08.022Z,6.50
2022-08-17T18:40:19.740Z,6.70
2022-08-17T18:45:33.438Z,7.10
2022-08-17T18:50:41.326Z,5.57
2022-08-17T18:55:43.502Z,5.55
2022-08-17T19:00:48.499Z,5.15
2022-08-17T19:05:56.419Z,6.05
2022-08-17T19:11:04.076Z,4.97
2022-08-17T19:16:17.678Z,6.35
2022-08-17T19:21:45.569Z,4.85
2022-08-17T19:27:06.470Z,4.75
2022-08-17T19:32:11.319Z,4.32
2022-08-17T19:37:31.229Z,4.90
2022-08-17T19:42:53.457Z,5.22
2022-08-17T19:48:18.544Z,5.00
2022-08-17T19:54:01.461Z,4.80
2022-08-17T19:59:12.503Z,4.82
2022-08-17T20:04:31.906Z,4.28
2022-08-17T20:09:38.884Z,6.25
2022-08-17T20:15:22.086Z,4.45
2022-08-17T20:20:49.999Z,4.95
2022-08-17T20:26:26.358Z,4.85
2022-08-17T20:32:13.524Z,4.32
2022-08-17T20:37:15.487Z,6.70
2022-08-17T20:42:20.176Z,4.97
2022-08-17T20:47:28.338Z,5.22
2022-08-17T20:52:48.674Z,5.13
2022-08-17T20:57:50.824Z,5.57
2022-08-17T21:03:50.087Z,6.03
2022-08-17T21:09:12.838Z,7.32
2022-08-17T21:15:06.004Z,5.55
2022-08-17T21:20:32.773Z,6.15
2022-08-17T21:26:02.609Z,5.28
2022-08-17T21:31:09.112Z,7.28
2022-08-17T21:36:17.148Z,5.70
2022-08-17T21:41:23.739Z,5.72
2022-08-17T21:46:31.539Z,5.60
2022-08-17T21:51:37.940Z,6.53
2022-08-17T21:56:45.305Z,5.72
2022-08-17T22:01:55.981Z,5.60
2022-08-17T22:07:01.046Z,6.13
2022-08-17T22:12:12.601Z,5.80
2022-08-17T22:17:20.530Z,5.95
2022-08-17T22:22:27.004Z,8.15
2022-08-17T22:27:52.401Z,6.00
2022-08-17T22:32:55.467Z,6.38
2022-08-17T22:38:17.737Z,8.13
2022-08-17T22:43:26.040Z,6.60
2022-08-17T22:48:30.433Z,5.93
2022-08-17T22:53:53.618Z,6.15
2022-08-17T22:59:17.308Z,5.85
2022-08-17T23:04:37.636Z,6.75
2022-08-17T23:09:39.887Z,6.18
2022-08-17T23:14:46.081Z,6.28
2022-08-17T23:19:48.092Z,6.57
2022-08-17T23:24:50.729Z,6.07
2022-08-17T23:29:52.788Z,6.10
2022-08-17T23:34:54.872Z,5.57
2022-08-17T23:39:57.268Z,5.55
2022-08-17T23:44:59.420Z,5.03
2022-08-17T23:50:05.491Z,5.90
2022-08-17T23:55:08.558Z,5.45
